sensor_id;sensor_type;location;lat;lon;timestamp;pressure;altitude;pressure_sealevel;temperature;humidity
32330;BME280;18807;52.434;13.238;2023-04-25T00:05:46;75885.94;;;-142.05;65.77
32330;BME280;18807;52.434;13.238;2023-04-25T00:13:22;75875.75;;;-142.05;66.11
32330;BME280;18807;52.434;13.238;2023-04-25T00:20:58;75885.94;;;-142.05;66.36
32330;BME280;18807;52.434;13.238;2023-04-25T00:28:33;75885.94;;;-142.05;66.52
32330;BME280;18807;52.434;13.238;2023-04-25T00:36:07;75883.91;;;-142.05;67.03
32330;BME280;18807;52.434;13.238;2023-04-25T00:43:43;75879.81;;;-142.05;67.46
32330;BME280;18807;52.434;13.238;2023-04-25T00:51:20;75883.91;;;-142.05;67.52
32330;BME280;18807;52.434;13.238;2023-04-25T00:58:56;75883.91;;;-142.05;67.50
32330;BME280;18807;52.434;13.238;2023-04-25T01:06:30;75877.78;;;-142.05;67.56
32330;BME280;18807;52.434;13.238;2023-04-25T01:14:06;75877.78;;;-142.05;67.84
32330;BME280;18807;52.434;13.238;2023-04-25T01:21:41;75875.75;;;-142.05;68.14
32330;BME280;18807;52.434;13.238;2023-04-25T01:29:15;75873.69;;;-142.05;67.82
32330;BME280;18807;52.434;13.238;2023-04-25T01:36:51;75875.75;;;-142.05;68.20
32330;BME280;18807;52.434;13.238;2023-04-25T01:44:25;75879.81;;;-142.05;68.26
32330;BME280;18807;52.434;13.238;2023-04-25T01:52:00;75888.00;;;-142.05;68.31
32330;BME280;18807;52.434;13.238;2023-04-25T01:59:34;75892.06;;;-142.05;67.78
32330;BME280;18807;52.434;13.238;2023-04-25T02:07:10;75890.03;;;-142.05;68.61
32330;BME280;18807;52.434;13.238;2023-04-25T02:14:44;75881.88;;;-142.05;69.25
32330;BME280;18807;52.434;13.238;2023-04-25T02:22:19;75892.06;;;-142.05;68.04
32330;BME280;18807;52.434;13.238;2023-04-25T02:29:53;75890.03;;;-142.05;68.09
32330;BME280;18807;52.434;13.238;2023-04-25T02:37:46;75902.28;;;-142.05;68.61
32330;BME280;18807;52.434;13.238;2023-04-25T02:45:20;75906.34;;;-142.05;68.66
32330;BME280;18807;52.434;13.238;2023-04-25T02:52:55;75902.28;;;-142.05;69.69
32330;BME280;18807;52.434;13.238;2023-04-25T03:00:29;75902.28;;;-142.05;69.53
32330;BME280;18807;52.434;13.238;2023-04-25T03:08:05;75908.41;;;-142.05;69.41
32330;BME280;18807;52.434;13.238;2023-04-25T03:15:39;75910.44;;;-142.05;69.28
32330;BME280;18807;52.434;13.238;2023-04-25T03:23:14;75916.56;;;-142.05;69.54
32330;BME280;18807;52.434;13.238;2023-04-25T03:30:48;75920.63;;;-142.05;69.74
32330;BME280;18807;52.434;13.238;2023-04-25T03:38:23;75922.69;;;-142.05;69.98
32330;BME280;18807;52.434;13.238;2023-04-25T03:45:58;75920.63;;;-142.05;70.72
32330;BME280;18807;52.434;13.238;2023-04-25T03:53:34;75930.84;;;-142.05;70.94
32330;BME280;18807;52.434;13.238;2023-04-25T04:01:08;75936.97;;;-142.05;71.47
32330;BME280;18807;52.434;13.238;2023-04-25T04:08:44;75951.25;;;-142.05;72.00
32330;BME280;18807;52.434;13.238;2023-04-25T04:16:18;75955.34;;;-142.05;72.94
32330;BME280;18807;52.434;13.238;2023-04-25T04:23:54;75955.34;;;-142.05;72.76
32330;BME280;18807;52.434;13.238;2023-04-25T04:31:30;75951.25;;;-142.05;72.95
32330;BME280;18807;52.434;13.238;2023-04-25T04:39:06;75959.41;;;-142.05;73.24
32330;BME280;18807;52.434;13.238;2023-04-25T04:46:41;75963.50;;;-142.05;73.37
32330;BME280;18807;52.434;13.238;2023-04-25T04:54:16;75955.34;;;-142.05;73.91
32330;BME280;18807;52.434;13.238;2023-04-25T05:01:52;75969.63;;;-142.05;74.29
32330;BME280;18807;52.434;13.238;2023-04-25T05:09:27;75961.47;;;-142.05;74.47
32330;BME280;18807;52.434;13.238;2023-04-25T05:17:01;75977.78;;;-142.05;74.61
32330;BME280;18807;52.434;13.238;2023-04-25T05:24:40;75963.50;;;-142.05;76.08
32330;BME280;18807;52.434;13.238;2023-04-25T05:32:14;75973.69;;;-142.05;77.09
32330;BME280;18807;52.434;13.238;2023-04-25T05:39:49;75973.69;;;-142.05;77.32
32330;BME280;18807;52.434;13.238;2023-04-25T05:47:23;75979.81;;;-142.05;77.89
32330;BME280;18807;52.434;13.238;2023-04-25T05:54:59;75975.75;;;-142.05;77.96
32330;BME280;18807;52.434;13.238;2023-04-25T06:02:33;75979.81;;;-142.05;77.36
32330;BME280;18807;52.434;13.238;2023-04-25T06:10:09;75975.75;;;-142.05;77.72
32330;BME280;18807;52.434;13.238;2023-04-25T06:17:43;75979.81;;;-142.05;77.18
32330;BME280;18807;52.434;13.238;2023-04-25T06:25:18;75975.75;;;-142.05;77.75
32330;BME280;18807;52.434;13.238;2023-04-25T06:32:52;75971.66;;;-142.05;77.79
32330;BME280;18807;52.434;13.238;2023-04-25T06:40:28;75967.59;;;-142.05;77.92
32330;BME280;18807;52.434;13.238;2023-04-25T06:48:02;75981.88;;;-142.05;78.43
32330;BME280;18807;52.434;13.238;2023-04-25T06:55:38;75992.06;;;-142.05;78.85
32330;BME280;18807;52.434;13.238;2023-04-25T07:03:11;76012.47;;;-142.05;87.41
32330;BME280;18807;52.434;13.238;2023-04-25T07:10:47;76024.72;;;-142.05;96.09
32330;BME280;18807;52.434;13.238;2023-04-25T07:18:21;76053.28;;;-142.05;96.94
32330;BME280;18807;52.434;13.238;2023-04-25T07:25:56;76063.50;;;-142.05;89.07
32330;BME280;18807;52.434;13.238;2023-04-25T07:33:30;76065.53;;;-142.05;84.90
32330;BME280;18807;52.434;13.238;2023-04-25T07:41:06;76073.72;;;-142.05;82.15
32330;BME280;18807;52.434;13.238;2023-04-25T07:48:40;76081.88;;;-142.05;81.11
32330;BME280;18807;52.434;13.238;2023-04-25T07:56:15;76075.75;;;-142.05;80.59
32330;BME280;18807;52.434;13.238;2023-04-25T08:03:49;76085.94;;;-142.05;81.35
32330;BME280;18807;52.434;13.238;2023-04-25T08:11:24;76077.78;;;-142.05;74.88
32330;BME280;18807;52.434;13.238;2023-04-25T08:18:59;76073.72;;;-142.05;66.97
32330;BME280;18807;52.434;13.238;2023-04-25T08:26:35;76059.41;;;-142.05;61.36
32330;BME280;18807;52.434;13.238;2023-04-25T08:34:09;76051.25;;;-142.05;58.52
32330;BME280;18807;52.434;13.238;2023-04-25T08:41:45;76045.13;;;-142.05;55.84
32330;BME280;18807;52.434;13.238;2023-04-25T08:49:19;76045.13;;;-142.05;53.14
32330;BME280;18807;52.434;13.238;2023-04-25T08:56:54;76026.78;;;-142.05;50.75
32330;BME280;18807;52.434;13.238;2023-04-25T09:04:30;75934.94;;;-142.05;50.18
32330;BME280;18807;52.434;13.238;2023-04-25T09:12:06;75967.59;;;-142.05;48.40
32330;BME280;18807;52.434;13.238;2023-04-25T09:19:40;75945.13;;;-142.05;48.38
32330;BME280;18807;52.434;13.238;2023-04-25T09:27:18;75908.41;;;-142.05;47.71
32330;BME280;18807;52.434;13.238;2023-04-25T09:34:54;75890.03;;;-142.05;47.83
32330;BME280;18807;52.434;13.238;2023-04-25T09:42:29;75939.00;;;-142.05;46.30
32330;BME280;18807;52.434;13.238;2023-04-25T09:50:13;75949.22;;;-142.05;45.43
32330;BME280;18807;52.434;13.238;2023-04-25T09:57:50;75941.06;;;-142.05;45.63
32330;BME280;18807;52.434;13.238;2023-04-25T10:05:27;75908.41;;;-142.05;45.51
32330;BME280;18807;52.434;13.238;2023-04-25T10:13:05;75916.56;;;-142.05;44.22
32330;BME280;18807;52.434;13.238;2023-04-25T10:20:40;75922.69;;;-142.05;43.45
32330;BME280;18807;52.434;13.238;2023-04-25T10:28:15;75894.13;;;-142.05;42.81
32330;BME280;18807;52.434;13.238;2023-04-25T10:35:50;75851.25;;;-142.05;43.79
32330;BME280;18807;52.434;13.238;2023-04-25T10:43:39;75910.44;;;-142.05;42.63
32330;BME280;18807;52.434;13.238;2023-04-25T10:51:17;75926.75;;;-142.05;43.14
32330;BME280;18807;52.434;13.238;2023-04-25T10:59:03;75924.72;;;-142.05;41.52
32330;BME280;18807;52.434;13.238;2023-04-25T11:06:50;75934.94;;;-142.05;41.27
32330;BME280;18807;52.434;13.238;2023-04-25T11:14:39;75967.59;;;-142.05;41.62
32330;BME280;18807;52.434;13.238;2023-04-25T11:22:13;76020.66;;;-142.05;42.53
32330;BME280;18807;52.434;13.238;2023-04-25T11:29:49;76049.22;;;-142.05;40.66
32330;BME280;18807;52.434;13.238;2023-04-25T11:37:23;76079.81;;;-142.05;39.81
32330;BME280;18807;52.434;13.238;2023-04-25T11:44:59;76073.72;;;-142.05;38.99
32330;BME280;18807;52.434;13.238;2023-04-25T11:52:37;76065.53;;;-142.05;39.80
32330;BME280;18807;52.434;13.238;2023-04-25T12:00:15;76043.09;;;-142.05;40.92
32330;BME280;18807;52.434;13.238;2023-04-25T12:07:50;76053.28;;;-142.05;40.34
32330;BME280;18807;52.434;13.238;2023-04-25T12:15:26;76043.09;;;-142.05;38.43
32330;BME280;18807;52.434;13.238;2023-04-25T12:23:05;76030.84;;;-142.05;38.72
32330;BME280;18807;52.434;13.238;2023-04-25T12:30:58;76008.41;;;-142.05;39.07
32330;BME280;18807;52.434;13.238;2023-04-25T12:38:36;75994.13;;;-142.05;39.07
32330;BME280;18807;52.434;13.238;2023-04-25T12:46:11;76012.47;;;-142.05;39.68
32330;BME280;18807;52.434;13.238;2023-04-25T12:53:45;76049.22;;;-142.05;39.99
32330;BME280;18807;52.434;13.238;2023-04-25T13:01:21;76051.25;;;-142.05;40.30
32330;BME280;18807;52.434;13.238;2023-04-25T13:08:55;76053.28;;;-142.05;41.14
32330;BME280;18807;52.434;13.238;2023-04-25T13:16:30;76020.66;;;-142.05;41.10
32330;BME280;18807;52.434;13.238;2023-04-25T13:24:05;75990.03;;;-142.05;39.55
32330;BME280;18807;52.434;13.238;2023-04-25T13:31:41;75969.63;;;-142.05;39.84
32330;BME280;18807;52.434;13.238;2023-04-25T13:39:15;75959.41;;;-142.05;39.22
32330;BME280;18807;52.434;13.238;2023-04-25T13:46:50;76002.28;;;-142.05;39.62
32330;BME280;18807;52.434;13.238;2023-04-25T13:54:24;76018.59;;;-142.05;40.12
32330;BME280;18807;52.434;13.238;2023-04-25T14:01:59;76045.13;;;-142.05;41.15
32330;BME280;18807;52.434;13.238;2023-04-25T14:09:34;76092.06;;;-142.05;42.06
32330;BME280;18807;52.434;13.238;2023-04-25T14:17:10;76110.44;;;-142.05;43.02
32330;BME280;18807;52.434;13.238;2023-04-25T14:24:44;76136.97;;;-142.05;43.20
32330;BME280;18807;52.434;13.238;2023-04-25T14:32:19;76132.91;;;-142.05;42.84
32330;BME280;18807;52.434;13.238;2023-04-25T14:39:53;76110.44;;;-142.05;44.46
32330;BME280;18807;52.434;13.238;2023-04-25T14:47:29;76100.25;;;-142.05;42.53
32330;BME280;18807;52.434;13.238;2023-04-25T14:55:03;76116.56;;;-142.05;42.80
32330;BME280;18807;52.434;13.238;2023-04-25T15:02:39;76139.03;;;-142.05;43.42
32330;BME280;18807;52.434;13.238;2023-04-25T15:10:13;76126.78;;;-142.05;43.97
32330;BME280;18807;52.434;13.238;2023-04-25T15:17:50;76114.53;;;-142.05;44.27
32330;BME280;18807;52.434;13.238;2023-04-25T15:25:24;76122.69;;;-142.05;44.31
32330;BME280;18807;52.434;13.238;2023-04-25T15:33:00;76096.16;;;-142.05;42.83
32330;BME280;18807;52.434;13.238;2023-04-25T15:40:34;76104.31;;;-142.05;42.80
32330;BME280;18807;52.434;13.238;2023-04-25T15:48:09;76106.38;;;-142.05;43.83
32330;BME280;18807;52.434;13.238;2023-04-25T15:55:43;76120.66;;;-142.05;42.61
32330;BME280;18807;52.434;13.238;2023-04-25T16:03:20;76145.13;;;-142.05;42.80
32330;BME280;18807;52.434;13.238;2023-04-25T16:10:55;76159.44;;;-142.05;43.11
32330;BME280;18807;52.434;13.238;2023-04-25T16:18:47;76171.69;;;-142.05;42.85
32330;BME280;18807;52.434;13.238;2023-04-25T16:26:21;76188.00;;;-142.05;43.86
32330;BME280;18807;52.434;13.238;2023-04-25T16:33:57;76214.53;;;-142.05;45.88
32330;BME280;18807;52.434;13.238;2023-04-25T16:41:30;76218.63;;;-142.05;46.33
32330;BME280;18807;52.434;13.238;2023-04-25T16:49:06;76232.91;;;-142.05;45.07
32330;BME280;18807;52.434;13.238;2023-04-25T16:56:40;76230.88;;;-142.05;44.99
32330;BME280;18807;52.434;13.238;2023-04-25T17:04:16;76216.56;;;-142.05;43.93
32330;BME280;18807;52.434;13.238;2023-04-25T17:11:50;76232.91;;;-142.05;43.88
32330;BME280;18807;52.434;13.238;2023-04-25T17:19:27;76232.91;;;-142.05;44.38
32330;BME280;18807;52.434;13.238;2023-04-25T17:27:03;76232.91;;;-142.05;44.43
32330;BME280;18807;52.434;13.238;2023-04-25T17:34:41;76249.22;;;-142.05;44.95
32330;BME280;18807;52.434;13.238;2023-04-25T17:42:17;76259.44;;;-142.05;45.72
32330;BME280;18807;52.434;13.238;2023-04-25T17:49:53;76269.66;;;-142.05;45.96
32330;BME280;18807;52.434;13.238;2023-04-25T17:57:28;76277.81;;;-142.05;46.96
32330;BME280;18807;52.434;13.238;2023-04-25T18:05:03;76302.31;;;-142.05;47.73
32330;BME280;18807;52.434;13.238;2023-04-25T18:12:41;76314.53;;;-142.05;48.81
32330;BME280;18807;52.434;13.238;2023-04-25T18:20:16;76320.66;;;-142.05;49.42
32330;BME280;18807;52.434;13.238;2023-04-25T18:27:50;76337.00;;;-142.05;50.58
32330;BME280;18807;52.434;13.238;2023-04-25T18:35:26;76347.19;;;-142.05;50.83
32330;BME280;18807;52.434;13.238;2023-04-25T18:43:00;76359.44;;;-142.05;51.35
32330;BME280;18807;52.434;13.238;2023-04-25T18:50:35;76367.63;;;-142.05;51.04
32330;BME280;18807;52.434;13.238;2023-04-25T18:58:10;76392.09;;;-142.05;51.75
32330;BME280;18807;52.434;13.238;2023-04-25T19:05:46;76416.59;;;-142.05;50.60
32330;BME280;18807;52.434;13.238;2023-04-25T19:13:20;76426.81;;;-142.05;50.88
32330;BME280;18807;52.434;13.238;2023-04-25T19:20:55;76445.19;;;-142.05;50.24
32330;BME280;18807;52.434;13.238;2023-04-25T19:28:29;76463.53;;;-142.05;49.88
32330;BME280;18807;52.434;13.238;2023-04-25T19:36:22;76486.00;;;-142.05;50.08
32330;BME280;18807;52.434;13.238;2023-04-25T19:43:57;76500.28;;;-142.05;50.51
32330;BME280;18807;52.434;13.238;2023-04-25T19:51:34;76514.56;;;-142.05;50.78
32330;BME280;18807;52.434;13.238;2023-04-25T19:59:08;76537.03;;;-142.05;50.85
32330;BME280;18807;52.434;13.238;2023-04-25T20:06:44;76535.00;;;-142.05;51.46
32330;BME280;18807;52.434;13.238;2023-04-25T20:14:18;76545.19;;;-142.05;52.35
32330;BME280;18807;52.434;13.238;2023-04-25T20:21:54;76563.56;;;-142.05;53.59
32330;BME280;18807;52.434;13.238;2023-04-25T20:29:28;76569.69;;;-142.05;53.61
32330;BME280;18807;52.434;13.238;2023-04-25T20:37:04;76571.72;;;-142.05;54.13
32330;BME280;18807;52.434;13.238;2023-04-25T20:44:40;76575.81;;;-142.05;54.91
32330;BME280;18807;52.434;13.238;2023-04-25T20:52:16;76598.25;;;-142.05;55.71
32330;BME280;18807;52.434;13.238;2023-04-25T20:59:50;76618.69;;;-142.05;56.20
32330;BME280;18807;52.434;13.238;2023-04-25T21:07:25;76626.84;;;-142.05;56.17
32330;BME280;18807;52.434;13.238;2023-04-25T21:15:00;76626.84;;;-142.05;56.60
32330;BME280;18807;52.434;13.238;2023-04-25T21:22:35;76641.13;;;-142.05;56.84
32330;BME280;18807;52.434;13.238;2023-04-25T21:30:10;76663.59;;;-142.05;57.20
32330;BME280;18807;52.434;13.238;2023-04-25T21:37:45;76688.09;;;-142.05;58.21
32330;BME280;18807;52.434;13.238;2023-04-25T21:45:20;76714.63;;;-142.05;58.49
32330;BME280;18807;52.434;13.238;2023-04-25T21:52:55;76735.03;;;-142.05;57.93
32330;BME280;18807;52.434;13.238;2023-04-25T22:00:30;76775.84;;;-142.05;57.40
32330;BME280;18807;52.434;13.238;2023-04-25T22:08:07;76786.06;;;-142.05;57.01
32330;BME280;18807;52.434;13.238;2023-04-25T22:15:41;76794.22;;;-142.05;56.52
32330;BME280;18807;52.434;13.238;2023-04-25T22:23:17;76814.66;;;-142.05;56.29
32330;BME280;18807;52.434;13.238;2023-04-25T22:30:51;76833.00;;;-142.05;57.38
32330;BME280;18807;52.434;13.238;2023-04-25T22:38:26;76835.06;;;-142.05;57.63
32330;BME280;18807;52.434;13.238;2023-04-25T22:46:00;76843.22;;;-142.05;59.21
32330;BME280;18807;52.434;13.238;2023-04-25T22:53:36;76865.69;;;-142.05;60.51
32330;BME280;18807;52.434;13.238;2023-04-25T23:01:11;76879.97;;;-142.05;61.40
32330;BME280;18807;52.434;13.238;2023-04-25T23:08:46;76879.97;;;-142.05;61.73
32330;BME280;18807;52.434;13.238;2023-04-25T23:16:21;76890.19;;;-142.05;62.65
32330;BME280;18807;52.434;13.238;2023-04-25T23:23:56;76908.56;;;-142.05;63.22
32330;BME280;18807;52.434;13.238;2023-04-25T23:31:31;76926.91;;;-142.05;63.45
32330;BME280;18807;52.434;13.238;2023-04-25T23:39:07;76945.28;;;-142.05;63.81
32330;BME280;18807;52.434;13.238;2023-04-25T23:46:41;76961.63;;;-142.05;64.18
32330;BME280;18807;52.434;13.238;2023-04-25T23:54:16;76967.75;;;-142.05;64.41
